createdAt,value
2024-05-09T00:01:01.877Z,98442.97
2024-05-09T00:03:07.470Z,98445.91
2024-05-09T00:05:13.268Z,98441.63
2024-05-09T00:07:15.848Z,98440.28
2024-05-09T00:09:18.276Z,98446.72
2024-05-09T00:11:20.964Z,98446.22
2024-05-09T00:13:23.592Z,98441.09
2024-05-09T00:15:26.024Z,98444.06
2024-05-09T00:17:28.453Z,98440.00
2024-05-09T00:19:31.052Z,98443.50
2024-05-09T00:21:33.536Z,98441.91
2024-05-09T00:23:36.013Z,98441.09
2024-05-09T00:25:38.640Z,98445.69
2024-05-09T00:27:41.969Z,98444.06
2024-05-09T00:29:44.366Z,98437.06
2024-05-09T00:31:46.750Z,98443.25
2024-05-09T00:33:49.364Z,98437.34
2024-05-09T00:35:51.893Z,98430.34
2024-05-09T00:37:54.319Z,98433.03
2024-05-09T00:39:56.814Z,98439.75
2024-05-09T00:41:59.947Z,98436.25
2024-05-09T00:44:02.539Z,98441.91
2024-05-09T00:46:05.829Z,98445.41
2024-05-09T00:48:09.716Z,98443.50
2024-05-09T00:50:19.226Z,98445.94
2024-05-09T00:52:25.471Z,98442.19
2024-05-09T00:54:27.864Z,98447.03
2024-05-09T00:56:30.489Z,98445.41
2024-05-09T00:58:32.943Z,98436.75
2024-05-09T01:00:39.498Z,98444.84
2024-05-09T01:02:43.545Z,98446.22
2024-05-09T01:04:46.218Z,98442.72
2024-05-09T01:06:48.728Z,98437.81
2024-05-09T01:08:51.293Z,98445.13
2024-05-09T01:10:53.864Z,98434.31
2024-05-09T01:12:56.332Z,98442.16
2024-05-09T01:14:58.798Z,98446.19
2024-05-09T01:17:01.263Z,98440.25
2024-05-09T01:19:04.993Z,98440.50
2024-05-09T01:21:09.666Z,98441.28
2024-05-09T01:23:14.683Z,98443.16
2024-05-09T01:25:18.583Z,98438.59
2024-05-09T01:27:21.582Z,98441.53
2024-05-09T01:29:24.184Z,98442.06
2024-05-09T01:31:26.670Z,98450.13
2024-05-09T01:33:29.099Z,98445.81
2024-05-09T01:35:31.597Z,98448.47
2024-05-09T01:37:34.721Z,98444.69
2024-05-09T01:39:37.220Z,98444.88
2024-05-09T01:41:39.947Z,98444.59
2024-05-09T01:43:42.344Z,98448.09
2024-05-09T01:45:44.744Z,98437.53
2024-05-09T01:47:47.345Z,98450.19
2024-05-09T01:49:49.790Z,98449.38
2024-05-09T01:51:52.160Z,98444.47
2024-05-09T01:53:54.943Z,98447.38
2024-05-09T01:55:57.334Z,98454.88
2024-05-09T01:57:59.852Z,98457.03
2024-05-09T02:00:02.218Z,98453.25
2024-05-09T02:02:06.749Z,98478.66
2024-05-09T02:04:09.424Z,98456.78
2024-05-09T02:06:12.013Z,98454.44
2024-05-09T02:08:15.466Z,98474.00
2024-05-09T02:10:23.516Z,98469.50
2024-05-09T02:12:32.746Z,98463.63
2024-05-09T02:14:35.429Z,98475.81
2024-05-09T02:16:37.861Z,98457.72
2024-05-09T02:18:40.419Z,98460.16
2024-05-09T02:20:43.552Z,98456.34
2024-05-09T02:22:46.461Z,98461.19
2024-05-09T02:24:48.937Z,98451.19
2024-05-09T02:26:51.290Z,98457.66
2024-05-09T02:28:53.685Z,98445.50
2024-05-09T02:30:56.147Z,98438.72
2024-05-09T02:32:58.791Z,98434.31
2024-05-09T02:35:01.274Z,98434.25
2024-05-09T02:37:03.863Z,98434.75
2024-05-09T02:39:06.474Z,98429.00
2024-05-09T02:41:09.287Z,98437.56
2024-05-09T02:43:12.991Z,98433.97
2024-05-09T02:45:15.618Z,98429.84
2024-05-09T02:47:18.185Z,98432.22
2024-05-09T02:49:20.766Z,98422.44
2024-05-09T02:51:23.132Z,98428.41
2024-05-09T02:53:25.519Z,98433.88
2024-05-09T02:55:27.988Z,98437.69
2024-05-09T02:57:30.344Z,98443.13
2024-05-09T02:59:32.755Z,98438.84
2024-05-09T03:01:35.477Z,98433.44
2024-05-09T03:03:38.134Z,98433.97
2024-05-09T03:05:41.110Z,98433.41
2024-05-09T03:07:45.082Z,98432.56
2024-05-09T03:09:54.070Z,98431.44
2024-05-09T03:12:15.148Z,98428.16
2024-05-09T03:14:17.936Z,98437.06
2024-05-09T03:16:20.502Z,98430.78
2024-05-09T03:18:22.981Z,98429.03
2024-05-09T03:20:32.420Z,98439.09
2024-05-09T03:22:37.024Z,98440.94
2024-05-09T03:24:39.366Z,98439.69
2024-05-09T03:26:42.209Z,98440.81
2024-05-09T03:28:44.890Z,98442.88
2024-05-09T03:30:47.317Z,98443.50
2024-05-09T03:32:49.904Z,98433.91
2024-05-09T03:34:52.462Z,98446.06
2024-05-09T03:36:54.916Z,98439.03
2024-05-09T03:38:57.267Z,98445.53
2024-05-09T03:40:59.725Z,98446.94
2024-05-09T03:43:02.191Z,98441.97
2024-05-09T03:45:04.620Z,98445.78
2024-05-09T03:47:07.165Z,98434.63
2024-05-09T03:49:09.975Z,98448.41
2024-05-09T03:51:12.875Z,98445.03
2024-05-09T03:53:16.265Z,98447.47
2024-05-09T03:55:19.170Z,98434.84
2024-05-09T03:57:21.525Z,98454.56
2024-05-09T03:59:24.002Z,98450.31
2024-05-09T04:01:26.452Z,98440.03
2024-05-09T04:03:29.133Z,98453.03
2024-05-09T04:05:33.189Z,98446.72
2024-05-09T04:07:36.758Z,98445.31
2024-05-09T04:09:39.275Z,98449.34
2024-05-09T04:11:41.847Z,98441.84
2024-05-09T04:13:44.527Z,98448.00
2024-05-09T04:15:47.134Z,98449.91
2024-05-09T04:17:51.819Z,98445.00
2024-05-09T04:20:00.848Z,98449.38
2024-05-09T04:22:03.440Z,98445.69
2024-05-09T04:24:06.139Z,98448.53
2024-05-09T04:26:09.120Z,98461.25
2024-05-09T04:28:11.724Z,98448.81
2024-05-09T04:30:21.638Z,98451.34
2024-05-09T04:32:32.969Z,98449.03
2024-05-09T04:34:36.159Z,98448.13
2024-05-09T04:36:40.309Z,98447.63
2024-05-09T04:38:44.248Z,98450.63
2024-05-09T04:40:46.777Z,98445.78
2024-05-09T04:42:49.354Z,98450.69
2024-05-09T04:44:54.224Z,98455.91
2024-05-09T04:46:58.190Z,98445.25
2024-05-09T04:49:01.039Z,98446.84
2024-05-09T04:51:03.756Z,98442.22
2024-05-09T04:53:07.609Z,98442.63
2024-05-09T04:55:11.086Z,98448.78
2024-05-09T04:57:13.650Z,98449.09
2024-05-09T04:59:16.195Z,98446.69
2024-05-09T05:01:18.751Z,98441.78
2024-05-09T05:03:21.588Z,98439.56
2024-05-09T05:05:24.538Z,98442.19
2024-05-09T05:07:27.130Z,98435.44
2024-05-09T05:09:29.600Z,98439.28
2024-05-09T05:11:32.126Z,98438.06
2024-05-09T05:13:37.879Z,98437.56
2024-05-09T05:15:41.806Z,98434.53
2024-05-09T05:17:44.407Z,98430.91
2024-05-09T05:19:47.095Z,98439.06
2024-05-09T05:21:49.659Z,98434.75
2024-05-09T05:23:52.099Z,98437.75
2024-05-09T05:25:55.174Z,98445.91
2024-05-09T05:27:57.980Z,98436.44
2024-05-09T05:30:00.516Z,98430.72
2024-05-09T05:32:03.149Z,98419.94
2024-05-09T05:34:05.708Z,98426.09
2024-05-09T05:36:08.581Z,98440.69
2024-05-09T05:38:11.436Z,98422.78
2024-05-09T05:40:24.640Z,98424.47
2024-05-09T05:42:30.909Z,98431.91
2024-05-09T05:44:33.447Z,98425.19
2024-05-09T05:46:36.057Z,98412.91
2024-05-09T05:48:38.615Z,98413.47
2024-05-09T05:50:41.150Z,98406.22
2024-05-09T05:52:44.175Z,98411.22
2024-05-09T05:54:48.783Z,98407.34
2024-05-09T05:56:51.346Z,98408.00
2024-05-09T05:58:53.904Z,98407.00
2024-05-09T06:00:56.875Z,98399.09
2024-05-09T06:02:59.495Z,98417.22
2024-05-09T06:05:02.502Z,98409.28
2024-05-09T06:07:06.402Z,98410.44
2024-05-09T06:09:08.971Z,98389.28
2024-05-09T06:11:11.769Z,98397.63
2024-05-09T06:13:15.878Z,98388.94
2024-05-09T06:15:18.427Z,98414.16
2024-05-09T06:17:21.136Z,98391.72
2024-05-09T06:19:25.119Z,98414.22
2024-05-09T06:21:27.706Z,98384.25
2024-05-09T06:23:30.276Z,98399.28
2024-05-09T06:25:32.896Z,98389.34
2024-05-09T06:27:35.494Z,98396.25
2024-05-09T06:29:41.180Z,98385.84
2024-05-09T06:31:44.414Z,98395.47
2024-05-09T06:33:47.188Z,98392.25
2024-05-09T06:35:49.759Z,98377.38
2024-05-09T06:37:52.410Z,98404.31
2024-05-09T06:39:55.907Z,98390.69
2024-05-09T06:42:02.339Z,98404.16
2024-05-09T06:44:04.894Z,98424.81
2024-05-09T06:46:07.394Z,98415.84
2024-05-09T06:48:12.110Z,98419.47
2024-05-09T06:50:46.899Z,98408.34
2024-05-09T06:52:49.431Z,98405.31
2024-05-09T06:54:51.927Z,98387.69
2024-05-09T06:56:54.469Z,98405.06
2024-05-09T06:58:57.009Z,98417.44
2024-05-09T07:00:59.527Z,98409.94
2024-05-09T07:03:05.374Z,98396.66
2024-05-09T07:05:08.785Z,98397.75
2024-05-09T07:07:11.277Z,98418.78
2024-05-09T07:09:13.898Z,98406.44
2024-05-09T07:11:16.519Z,98402.59
2024-05-09T07:13:19.496Z,98407.91
2024-05-09T07:15:22.123Z,98409.19
2024-05-09T07:17:24.885Z,98409.00
2024-05-09T07:19:29.009Z,98404.25
2024-05-09T07:21:35.689Z,98407.81
2024-05-09T07:23:39.065Z,98411.34
2024-05-09T07:25:42.065Z,98405.25
2024-05-09T07:27:44.640Z,98400.41
2024-05-09T07:29:48.649Z,98393.38
2024-05-09T07:31:51.744Z,98434.91
2024-05-09T07:33:55.466Z,98409.56
2024-05-09T07:35:58.163Z,98408.72
2024-05-09T07:38:00.769Z,98395.94
2024-05-09T07:40:05.799Z,98390.00
2024-05-09T07:42:08.568Z,98437.00
2024-05-09T07:44:11.089Z,98391.28
2024-05-09T07:53:33.874Z,98408.44
2024-05-09T07:55:02.734Z,98415.19
2024-05-09T07:57:07.418Z,98431.88
2024-05-09T07:59:10.007Z,98402.19
2024-05-09T08:01:12.839Z,98405.25
2024-05-09T08:03:15.481Z,98410.34
2024-05-09T08:05:18.168Z,98409.25
2024-05-09T08:07:20.940Z,98414.38
2024-05-09T08:09:23.555Z,98431.72
2024-05-09T08:11:26.488Z,98404.41
2024-05-09T08:13:31.081Z,98414.53
2024-05-09T08:15:33.653Z,98408.44
2024-05-09T08:17:36.238Z,98416.94
2024-05-09T08:19:41.114Z,98458.03
2024-05-09T08:21:43.594Z,98416.31
2024-05-09T08:23:46.095Z,98402.81
2024-05-09T08:25:48.562Z,98438.63
2024-05-09T08:27:52.695Z,98453.84
2024-05-09T08:29:56.007Z,98416.78
2024-05-09T08:31:59.732Z,98408.06
2024-05-09T08:34:02.397Z,98409.31
2024-05-09T08:36:05.231Z,98431.53
2024-05-09T08:38:08.106Z,98418.84
2024-05-09T08:40:23.678Z,98406.47
2024-05-09T08:42:35.858Z,98445.31
2024-05-09T08:44:39.686Z,98406.09
2024-05-09T08:46:42.992Z,98456.06
2024-05-09T08:48:47.138Z,98413.03
2024-05-09T08:50:50.976Z,98416.84
2024-05-09T08:52:54.081Z,98468.59
2024-05-09T08:54:56.648Z,98403.50
2024-05-09T08:56:59.992Z,98389.16
2024-05-09T08:59:02.879Z,98402.59
2024-05-09T09:01:05.788Z,98417.53
2024-05-09T09:03:10.088Z,98420.81
2024-05-09T09:05:24.683Z,98423.75
2024-05-09T09:07:29.743Z,98409.19
2024-05-09T09:09:33.480Z,98424.25
2024-05-09T09:11:36.252Z,98401.91
2024-05-09T09:13:44.663Z,98414.16
2024-05-09T09:15:49.058Z,98418.00
2024-05-09T09:17:59.501Z,98400.63
2024-05-09T09:20:02.453Z,98409.41
2024-05-09T09:22:06.474Z,98410.31
2024-05-09T09:24:10.645Z,98412.88
2024-05-09T09:26:16.809Z,98444.72
2024-05-09T09:28:19.475Z,98433.78
2024-05-09T09:30:34.078Z,98428.53
2024-05-09T09:32:39.571Z,98441.00
2024-05-09T09:34:42.774Z,98414.78
2024-05-09T09:36:45.462Z,98464.63
2024-05-09T09:38:51.243Z,98427.84
2024-05-09T09:40:55.448Z,98421.59
2024-05-09T09:42:58.592Z,98437.66
2024-05-09T09:45:05.320Z,98414.00
2024-05-09T09:47:09.331Z,98418.66
2024-05-09T09:49:12.351Z,98413.91
2024-05-09T09:51:17.832Z,98437.41
2024-05-09T09:53:21.164Z,98428.25
2024-05-09T09:55:25.223Z,98420.13
2024-05-09T09:57:28.477Z,98460.44
2024-05-09T09:59:36.412Z,98426.91
2024-05-09T10:01:38.986Z,98436.38
2024-05-09T10:03:43.048Z,98454.84
2024-05-09T10:05:47.352Z,98471.88
2024-05-09T10:07:50.331Z,98429.63
2024-05-09T10:09:55.822Z,98431.88
2024-05-09T10:12:01.396Z,98439.59
2024-05-09T10:14:04.009Z,98462.22
2024-05-09T10:16:10.387Z,98433.78
2024-05-09T10:18:13.505Z,98445.34
2024-05-09T10:20:21.961Z,98455.31
2024-05-09T10:22:28.913Z,98445.34
2024-05-09T10:24:49.785Z,98433.47
2024-05-09T10:26:55.830Z,98467.69
2024-05-09T10:28:59.140Z,98447.59
2024-05-09T10:31:02.870Z,98457.38
2024-05-09T10:33:10.486Z,98436.16
2024-05-09T10:35:15.207Z,98451.69
2024-05-09T10:37:19.016Z,98448.03
2024-05-09T10:39:21.861Z,98437.78
2024-05-09T10:41:24.467Z,98455.19
2024-05-09T10:43:27.192Z,98448.66
2024-05-09T10:45:29.745Z,98472.97
2024-05-09T10:47:36.864Z,98522.91
2024-05-09T10:49:39.748Z,98466.88
2024-05-09T10:51:42.724Z,98457.88
2024-05-09T10:53:45.978Z,98468.78
2024-05-09T10:56:01.334Z,98461.81
2024-05-09T10:58:03.989Z,98467.72
2024-05-09T11:00:10.182Z,98454.22
2024-05-09T11:02:17.016Z,98482.41
2024-05-09T11:04:20.263Z,98465.09
2024-05-09T11:06:24.403Z,98458.03
2024-05-09T11:08:27.093Z,98454.97
2024-05-09T11:10:33.843Z,98477.47
2024-05-09T11:12:37.127Z,98466.38
2024-05-09T11:14:39.700Z,98454.00
2024-05-09T11:16:43.238Z,98458.53
2024-05-09T11:18:53.295Z,98475.19
2024-05-09T11:20:56.555Z,98484.66
2024-05-09T11:22:59.088Z,98456.56
2024-05-09T11:25:01.790Z,98455.31
2024-05-09T11:27:05.056Z,98470.59
2024-05-09T11:29:08.213Z,98467.03
2024-05-09T11:31:11.187Z,98468.00
2024-05-09T11:33:14.927Z,98489.22
2024-05-09T11:35:19.608Z,98475.41
2024-05-09T11:37:22.195Z,98474.75
2024-05-09T11:39:25.274Z,98462.19
2024-05-09T11:41:31.293Z,98466.50
2024-05-09T11:43:34.079Z,98483.19
2024-05-09T11:45:36.693Z,98459.94
2024-05-09T11:47:40.164Z,98467.19
2024-05-09T11:49:45.902Z,98472.66
2024-05-09T11:51:48.509Z,98472.00
2024-05-09T11:53:52.242Z,98469.09
2024-05-09T11:55:54.733Z,98484.22
2024-05-09T11:57:57.772Z,98485.03
2024-05-09T12:00:00.456Z,98484.38
2024-05-09T12:02:04.647Z,98476.50
2024-05-09T12:04:07.449Z,98466.06
2024-05-09T12:06:10.189Z,98472.13
2024-05-09T12:08:13.133Z,98469.13
2024-05-09T12:10:22.227Z,98476.75
2024-05-09T12:12:28.761Z,98471.78
2024-05-09T12:14:31.276Z,98471.75
2024-05-09T12:16:33.867Z,98472.66
2024-05-09T12:18:37.938Z,98468.19
2024-05-09T12:20:40.581Z,98542.84
2024-05-09T12:22:43.002Z,98492.66
2024-05-09T12:24:45.498Z,98547.16
2024-05-09T12:26:48.057Z,98485.50
2024-05-09T12:28:50.538Z,98485.13
2024-05-09T12:30:53.147Z,98476.09
2024-05-09T12:32:55.807Z,98492.97
2024-05-09T12:34:58.489Z,98479.56
2024-05-09T12:37:01.136Z,98477.56
2024-05-09T12:39:06.500Z,98478.53
2024-05-09T12:41:10.840Z,98469.38
2024-05-09T12:43:13.293Z,98476.03
2024-05-09T12:45:15.786Z,98459.97
2024-05-09T12:47:47.855Z,98458.72
2024-05-09T12:49:56.347Z,98508.44
2024-05-09T12:51:59.457Z,98479.28
2024-05-09T12:54:02.947Z,98477.28
2024-05-09T12:56:07.211Z,98470.47
2024-05-09T12:58:11.631Z,98477.41
2024-05-09T13:00:34.311Z,98489.13
2024-05-09T13:02:40.936Z,98472.97
2024-05-09T13:04:43.739Z,98477.47
2024-05-09T13:06:46.355Z,98467.81
2024-05-09T13:08:48.898Z,98463.69
2024-05-09T13:10:51.691Z,98479.72
2024-05-09T13:12:54.178Z,98477.75
2024-05-09T13:14:56.719Z,98481.28
2024-05-09T13:16:59.218Z,98477.72
2024-05-09T13:19:01.634Z,98477.09
2024-05-09T13:21:04.167Z,98486.97
2024-05-09T13:23:08.358Z,98490.38
2024-05-09T13:25:11.219Z,98470.00
2024-05-09T13:27:13.690Z,98477.75
2024-05-09T13:29:16.214Z,98472.63
2024-05-09T13:31:20.197Z,98497.91
2024-05-09T13:33:23.003Z,98474.59
2024-05-09T13:35:25.626Z,98487.75
2024-05-09T13:37:30.030Z,98474.03
2024-05-09T13:39:32.665Z,98500.16
2024-05-09T13:41:35.166Z,98485.09
2024-05-09T13:43:39.159Z,98488.81
2024-05-09T13:45:41.927Z,98497.78
2024-05-09T13:47:44.599Z,98497.88
2024-05-09T13:49:47.531Z,98499.78
2024-05-09T13:51:50.142Z,98479.22
2024-05-09T13:53:52.683Z,98509.94
2024-05-09T13:55:55.279Z,98485.41
2024-05-09T13:57:58.625Z,98497.63
2024-05-09T14:00:32.132Z,98498.25
2024-05-09T14:02:43.462Z,98530.28
2024-05-09T14:04:49.207Z,98504.50
2024-05-09T14:06:51.886Z,98489.47
2024-05-09T14:08:55.648Z,98492.97
2024-05-09T14:10:58.182Z,98499.00
2024-05-09T14:13:01.371Z,98497.53
2024-05-09T14:15:04.095Z,98486.09
2024-05-09T14:17:25.430Z,98487.19
2024-05-09T14:19:28.399Z,98501.22
2024-05-09T14:21:30.961Z,98501.47
2024-05-09T14:23:33.442Z,98509.38
2024-05-09T14:25:40.547Z,98507.53
2024-05-09T14:27:45.001Z,98499.84
2024-05-09T14:29:47.486Z,98508.47
2024-05-09T14:31:50.884Z,98520.47
2024-05-09T14:33:53.743Z,98516.53
2024-05-09T14:35:56.368Z,98526.00
2024-05-09T14:37:59.146Z,98532.94
2024-05-09T14:40:02.208Z,98516.06
2024-05-09T14:42:04.895Z,98526.59
2024-05-09T14:44:07.737Z,98533.69
2024-05-09T14:46:10.571Z,98508.88
2024-05-09T14:48:20.221Z,98532.88
2024-05-09T14:50:28.133Z,98537.28
2024-05-09T14:52:38.881Z,98539.03
2024-05-09T14:54:41.357Z,98521.00
2024-05-09T14:56:44.061Z,98547.59
2024-05-09T14:58:46.492Z,98534.31
2024-05-09T15:00:51.288Z,98541.88
2024-05-09T15:02:54.684Z,98523.16
2024-05-09T15:04:57.277Z,98539.03
2024-05-09T15:07:01.318Z,98526.06
2024-05-09T15:09:06.768Z,98543.81
2024-05-09T15:11:09.405Z,98549.28
2024-05-09T15:13:15.542Z,98555.19
2024-05-09T15:15:20.498Z,98548.03
2024-05-09T15:17:23.019Z,98552.66
2024-05-09T15:19:25.646Z,98567.28
2024-05-09T15:21:28.202Z,98562.88
2024-05-09T15:23:31.353Z,98560.94
2024-05-09T15:25:34.100Z,98546.78
2024-05-09T15:27:38.639Z,98573.03
2024-05-09T15:30:06.869Z,98551.53
2024-05-09T15:32:15.024Z,98566.75
2024-05-09T15:34:17.513Z,98551.47
2024-05-09T15:36:20.820Z,98568.88
2024-05-09T15:38:26.715Z,98562.13
2024-05-09T15:40:37.238Z,98566.72
2024-05-09T15:42:43.390Z,98546.50
2024-05-09T15:44:53.059Z,98566.16
2024-05-09T15:46:55.717Z,98549.97
2024-05-09T15:48:58.640Z,98567.16
2024-05-09T15:51:01.255Z,98563.81
2024-05-09T15:53:03.761Z,98565.53
2024-05-09T15:55:06.844Z,98557.31
2024-05-09T15:57:09.543Z,98554.31
2024-05-09T15:59:12.414Z,98572.38
2024-05-09T16:01:15.220Z,98579.34
2024-05-09T16:03:17.790Z,98570.06
2024-05-09T16:05:20.363Z,98590.44
2024-05-09T16:07:22.794Z,98575.44
2024-05-09T16:09:25.232Z,98575.97
2024-05-09T16:11:27.602Z,98569.50
2024-05-09T16:13:30.023Z,98570.19
2024-05-09T16:15:32.607Z,98589.59
2024-05-09T16:17:35.488Z,98584.19
2024-05-09T16:19:38.205Z,98575.69
2024-05-09T16:21:40.708Z,98577.69
2024-05-09T16:23:43.278Z,98568.63
2024-05-09T16:25:48.558Z,98581.19
2024-05-09T16:27:52.004Z,98582.97
2024-05-09T16:30:04.137Z,98575.00
2024-05-09T16:32:09.602Z,98584.63
2024-05-09T16:34:12.514Z,98569.22
2024-05-09T16:36:15.212Z,98579.13
2024-05-09T16:38:17.870Z,98587.38
2024-05-09T16:40:29.347Z,98579.59
2024-05-09T16:42:41.605Z,98582.38
2024-05-09T16:44:45.121Z,98578.91
2024-05-09T16:46:47.778Z,98576.56
2024-05-09T16:48:51.103Z,98586.41
2024-05-09T16:50:53.543Z,98590.00
2024-05-09T16:52:56.016Z,98585.13
2024-05-09T16:54:58.541Z,98598.25
2024-05-09T16:57:01.065Z,98598.31
2024-05-09T16:59:03.659Z,98588.88
2024-05-09T17:01:06.243Z,98593.25
2024-05-09T17:03:10.920Z,98612.91
2024-05-09T17:05:17.216Z,98599.94
2024-05-09T17:07:20.996Z,98608.09
2024-05-09T17:09:24.609Z,98620.63
2024-05-09T17:11:27.066Z,98601.69
2024-05-09T17:13:29.574Z,98604.47
2024-05-09T17:15:33.427Z,98603.16
2024-05-09T17:17:36.274Z,98615.66
2024-05-09T17:19:40.824Z,98602.41
2024-05-09T17:21:43.309Z,98611.63
2024-05-09T17:23:47.022Z,98610.59
2024-05-09T17:25:52.490Z,98598.19
2024-05-09T17:27:55.060Z,98612.00
2024-05-09T17:29:58.268Z,98602.88
2024-05-09T17:32:01.924Z,98612.38
2024-05-09T17:34:04.737Z,98610.75
2024-05-09T17:36:07.615Z,98615.63
2024-05-09T17:38:10.059Z,98615.13
2024-05-09T17:40:16.961Z,98630.56
2024-05-09T17:42:21.040Z,98615.16
2024-05-09T17:44:55.576Z,98614.94
2024-05-09T17:46:58.261Z,98616.34
2024-05-09T17:49:02.311Z,98606.06
2024-05-09T17:51:05.083Z,98606.34
2024-05-09T17:53:07.596Z,98612.03
2024-05-09T17:55:10.114Z,98603.91
2024-05-09T17:57:12.622Z,98605.06
2024-05-09T17:59:21.242Z,98625.06
2024-05-09T18:01:26.052Z,98605.31
2024-05-09T18:03:28.960Z,98618.03
2024-05-09T18:05:31.949Z,98609.63
2024-05-09T18:07:34.825Z,98600.41
2024-05-09T18:09:37.408Z,98609.28
2024-05-09T18:11:40.931Z,98618.50
2024-05-09T18:13:43.483Z,98600.56
2024-05-09T18:15:48.807Z,98602.16
2024-05-09T18:17:53.264Z,98603.72
2024-05-09T18:19:57.259Z,98605.06
2024-05-09T18:21:59.785Z,98613.19
2024-05-09T18:24:02.260Z,98606.09
2024-05-09T18:26:05.926Z,98620.97
2024-05-09T18:28:09.554Z,98624.19
2024-05-09T18:30:24.196Z,98621.19
2024-05-09T18:32:34.149Z,98635.00
2024-05-09T18:34:36.698Z,98635.06
2024-05-09T18:36:39.920Z,98639.75
2024-05-09T18:38:43.074Z,98628.66
2024-05-09T18:40:48.376Z,98628.19
2024-05-09T18:42:53.445Z,98647.47
2024-05-09T18:44:55.902Z,98654.31
2024-05-09T18:46:58.829Z,98652.75
2024-05-09T18:49:07.568Z,98645.75
2024-05-09T18:51:11.125Z,98637.44
2024-05-09T18:53:16.290Z,98644.22
2024-05-09T18:55:19.003Z,98628.28
2024-05-09T18:57:21.575Z,98632.69
2024-05-09T18:59:24.073Z,98636.22
2024-05-09T19:01:26.642Z,98630.81
2024-05-09T19:03:29.435Z,98632.69
2024-05-09T19:05:32.427Z,98625.94
2024-05-09T19:07:35.799Z,98635.97
2024-05-09T19:09:39.006Z,98628.94
2024-05-09T19:11:41.650Z,98623.28
2024-05-09T19:13:45.518Z,98620.03
2024-05-09T19:15:48.836Z,98622.00
2024-05-09T19:17:53.674Z,98622.03
2024-05-09T19:19:56.973Z,98637.47
2024-05-09T19:21:59.560Z,98628.31
2024-05-09T19:24:02.091Z,98639.97
2024-05-09T19:26:04.735Z,98645.66
2024-05-09T19:28:07.370Z,98653.50
2024-05-09T19:30:17.748Z,98634.31
2024-05-09T19:32:27.941Z,98653.50
2024-05-09T19:34:30.863Z,98644.06
2024-05-09T19:36:36.729Z,98637.31
2024-05-09T19:38:39.245Z,98637.06
2024-05-09T19:40:41.894Z,98651.66
2024-05-09T19:42:45.984Z,98656.53
2024-05-09T19:44:49.720Z,98647.91
2024-05-09T19:46:53.461Z,98651.44
2024-05-09T19:48:56.454Z,98647.38
2024-05-09T19:50:59.198Z,98638.22
2024-05-09T19:53:03.061Z,98648.47
2024-05-09T19:55:05.809Z,98651.75
2024-05-09T19:57:08.588Z,98642.56
2024-05-09T19:59:11.721Z,98636.94
2024-05-09T20:01:15.513Z,98645.56
2024-05-09T20:03:18.109Z,98643.44
2024-05-09T20:05:20.864Z,98651.56
2024-05-09T20:07:23.516Z,98651.81
2024-05-09T20:09:25.988Z,98645.88
2024-05-09T20:11:33.072Z,98646.94
2024-05-09T20:13:37.164Z,98650.72
2024-05-09T20:15:40.706Z,98649.06
2024-05-09T20:17:43.734Z,98647.47
2024-05-09T20:19:46.467Z,98663.13
2024-05-09T20:21:49.032Z,98676.41
2024-05-09T20:23:52.918Z,98673.41
2024-05-09T20:25:55.396Z,98667.47
2024-05-09T20:27:57.945Z,98671.28
2024-05-09T20:30:00.456Z,98670.19
2024-05-09T20:32:03.015Z,98666.69
2024-05-09T20:34:06.181Z,98675.91
2024-05-09T20:36:08.724Z,98670.75
2024-05-09T20:38:11.358Z,98682.13
2024-05-09T20:40:21.180Z,98662.13
2024-05-09T20:42:28.121Z,98681.88
2024-05-09T20:44:30.572Z,98673.75
2024-05-09T20:46:34.432Z,98673.75
2024-05-09T20:48:37.137Z,98675.38
2024-05-09T20:50:42.014Z,98666.47
2024-05-09T20:52:46.510Z,98666.22
2024-05-09T20:54:48.981Z,98662.16
2024-05-09T20:56:51.500Z,98671.63
2024-05-09T20:58:54.044Z,98672.97
2024-05-09T21:00:57.215Z,98673.53
2024-05-09T21:02:59.896Z,98662.47
2024-05-09T21:05:02.697Z,98662.75
2024-05-09T21:07:06.003Z,98663.28
2024-05-09T21:09:08.442Z,98662.72
2024-05-09T21:11:11.006Z,98664.38
2024-05-09T21:13:13.583Z,98665.19
2024-05-09T21:15:16.111Z,98675.19
2024-05-09T21:17:18.878Z,98666.00
2024-05-09T21:19:21.530Z,98674.09
2024-05-09T21:21:24.159Z,98664.09
2024-05-09T21:23:26.614Z,98658.47
2024-05-09T21:25:29.069Z,98659.53
2024-05-09T21:27:31.615Z,98665.22
2024-05-09T21:29:34.067Z,98671.41
2024-05-09T21:31:36.573Z,98655.19
2024-05-09T21:33:39.315Z,98664.13
2024-05-09T21:35:42.341Z,98662.78
2024-05-09T21:37:45.035Z,98658.75
2024-05-09T21:39:48.087Z,98662.25
2024-05-09T21:41:50.603Z,98667.09
2024-05-09T21:43:53.029Z,98659.00
2024-05-09T21:45:55.498Z,98678.97
2024-05-09T21:47:58.165Z,98650.09
2024-05-09T21:50:00.833Z,98668.19
2024-05-09T21:52:03.390Z,98656.56
2024-05-09T21:54:05.932Z,98678.44
2024-05-09T21:56:08.680Z,98657.91
2024-05-09T21:58:12.577Z,98677.34
2024-05-09T22:00:28.039Z,98673.84
2024-05-09T22:02:37.509Z,98664.41
2024-05-09T22:04:40.350Z,98672.75
2024-05-09T22:06:42.842Z,98674.66
2024-05-09T22:08:45.432Z,98677.91
2024-05-09T22:10:48.000Z,98665.75
2024-05-09T22:12:50.607Z,98672.75
2024-05-09T22:14:53.127Z,98675.47
2024-05-09T22:16:55.687Z,98678.44
2024-05-09T22:18:58.296Z,98670.06
2024-05-09T22:21:00.800Z,98680.59
2024-05-09T22:23:03.507Z,98683.56
2024-05-09T22:25:06.328Z,98681.16
2024-05-09T22:27:12.257Z,98681.41
2024-05-09T22:29:14.715Z,98679.78
2024-05-09T22:31:17.293Z,98674.66
2024-05-09T22:33:19.918Z,98678.41
2024-05-09T22:35:22.418Z,98683.00
2024-05-09T22:37:24.906Z,98678.41
2024-05-09T22:39:27.900Z,98674.91
2024-05-09T22:41:30.351Z,98678.72
2024-05-09T22:43:32.869Z,98682.47
2024-05-09T22:45:35.548Z,98681.41
2024-05-09T22:47:38.086Z,98671.69
2024-05-09T22:49:40.960Z,98681.66
2024-05-09T22:51:43.580Z,98673.03
2024-05-09T22:53:46.021Z,98685.72
2024-05-09T22:55:48.554Z,98665.22
2024-05-09T22:57:50.998Z,98676.28
2024-05-09T22:59:53.522Z,98668.19
2024-05-09T23:01:56.122Z,98671.69
2024-05-09T23:03:58.776Z,98660.88
2024-05-09T23:06:01.300Z,98666.53
2024-05-09T23:08:03.959Z,98683.81
2024-05-09T23:10:13.180Z,98675.44
2024-05-09T23:12:20.347Z,98667.63
2024-05-09T23:14:22.825Z,98659.81
2024-05-09T23:16:25.621Z,98661.69
2024-05-09T23:18:28.418Z,98664.13
2024-05-09T23:20:37.044Z,98664.66
2024-05-09T23:22:41.880Z,98657.38
2024-05-09T23:24:44.349Z,98663.56
2024-05-09T23:26:46.828Z,98657.38
2024-05-09T23:28:49.461Z,98656.81
2024-05-09T23:30:51.959Z,98659.53
2024-05-09T23:32:54.890Z,98664.91
2024-05-09T23:34:57.482Z,98663.06
2024-05-09T23:37:00.013Z,98661.97
2024-05-09T23:39:02.514Z,98652.25
2024-05-09T23:41:06.550Z,98660.06
2024-05-09T23:43:10.172Z,98663.31
2024-05-09T23:45:13.028Z,98653.59
2024-05-09T23:47:18.136Z,98650.09
2024-05-09T23:49:20.662Z,98651.44
2024-05-09T23:51:23.249Z,98659.81
2024-05-09T23:53:25.728Z,98648.47
2024-05-09T23:55:29.337Z,98645.53
2024-05-09T23:57:31.910Z,98652.53
2024-05-09T23:59:34.627Z,98646.06
